Time;durP1;ratioP1;P1;durP2;ratioP2;P2;SDS_P1;SDS_P2;PMS_P1;PMS_P2;Temp;Humidity;BMP_temperature;BMP_pressure;BME280_temperature;BME280_humidity;BME280_pressure;Samples;Min_cycle;Max_cycle;Signal;HPM_P1;HPM_P2
2022/02/23 00:01:10;;;;;;;15.15;3.50;;;;;;;;;;6217945;23;20141;-63
2022/02/23 00:03:36;;;;;;;16.60;3.33;;;;;;;;;;6218325;23;20168;-63
2022/02/23 00:06:02;;;;;;;19.13;4.82;;;;;;;;;;6217670;23;20540;-63
2022/02/23 00:08:28;;;;;;;16.67;4.05;;;;;;;;;;6218029;23;20145;-63
2022/02/23 00:10:56;;;;;;;13.20;2.70;;;;;;;;;;6217980;23;20154;-63
2022/02/23 00:13:22;;;;;;;14.32;3.60;;;;;;;;;;6217909;23;20141;-62
2022/02/23 00:15:48;;;;;;;22.65;3.92;;;;;;;;;;6217692;23;20143;-63
2022/02/23 00:18:17;;;;;;;17.73;2.80;;;;;;;;;;6217500;23;20532;-63
2022/02/23 00:20:43;;;;;;;18.60;3.70;;;;;;;;;;6217052;23;20558;-63
2022/02/23 00:23:09;;;;;;;14.88;3.42;;;;;;;;;;6217253;23;20546;-63
2022/02/23 00:25:35;;;;;;;15.73;3.30;;;;;;;;;;6216944;23;20138;-63
2022/02/23 00:28:01;;;;;;;14.73;2.95;;;;;;;;;;6217374;23;20137;-63
2022/02/23 00:30:27;;;;;;;18.13;3.55;;;;;;;;;;6217886;23;20525;-63
2022/02/23 00:32:54;;;;;;;22.52;3.55;;;;;;;;;;6217814;23;20226;-63
2022/02/23 00:35:20;;;;;;;17.67;3.50;;;;;;;;;;6217952;23;20573;-63
2022/02/23 00:37:46;;;;;;;14.60;3.30;;;;;;;;;;6218272;23;20197;-63
2022/02/23 00:40:12;;;;;;;20.63;3.65;;;;;;;;;;6218148;23;20195;-63
2022/02/23 00:42:38;;;;;;;19.98;4.00;;;;;;;;;;6217948;23;20145;-63
2022/02/23 00:45:04;;;;;;;18.38;3.15;;;;;;;;;;6218361;23;20187;-63
2022/02/23 00:47:31;;;;;;;18.00;4.22;;;;;;;;;;6218697;23;20212;-63
2022/02/23 00:49:56;;;;;;;17.27;3.30;;;;;;;;;;6219317;23;20145;-63
2022/02/23 00:52:23;;;;;;;21.55;3.60;;;;;;;;;;6218856;23;20148;-63
2022/02/23 00:54:48;;;;;;;18.83;3.33;;;;;;;;;;6219266;23;20149;-63
2022/02/23 00:57:15;;;;;;;17.60;3.40;;;;;;;;;;6220001;23;20205;-63
2022/02/23 00:59:41;;;;;;;18.15;3.28;;;;;;;;;;6219467;23;20180;-63
2022/02/23 01:02:07;;;;;;;10.95;1.95;;;;;;;;;;6219924;23;20152;-63
2022/02/23 01:04:33;;;;;;;14.20;2.50;;;;;;;;;;6219054;23;20141;-62
2022/02/23 01:06:59;;;;;;;13.32;2.75;;;;;;;;;;6219983;23;20226;-61
2022/02/23 01:09:25;;;;;;;13.75;2.05;;;;;;;;;;6219984;23;20494;-62
2022/02/23 01:11:51;;;;;;;12.73;2.70;;;;;;;;;;6221021;23;20149;-61
2022/02/23 01:14:17;;;;;;;11.25;2.30;;;;;;;;;;6219571;23;20516;-62
2022/02/23 01:16:43;;;;;;;7.32;1.75;;;;;;;;;;6220020;23;20193;-62
2022/02/23 01:19:09;;;;;;;8.38;1.60;;;;;;;;;;6220796;23;20164;-62
2022/02/23 01:21:35;;;;;;;13.93;2.30;;;;;;;;;;6220457;23;20496;-62
2022/02/23 01:24:01;;;;;;;13.73;2.00;;;;;;;;;;6220576;23;20392;-62
2022/02/23 01:26:28;;;;;;;11.13;1.88;;;;;;;;;;6220769;23;20145;-62
2022/02/23 01:28:54;;;;;;;9.52;2.13;;;;;;;;;;6220632;23;20441;-62
2022/02/23 01:31:20;;;;;;;13.48;2.45;;;;;;;;;;6219728;23;20156;-62
2022/02/23 01:33:46;;;;;;;17.23;2.42;;;;;;;;;;6219623;23;20164;-62
2022/02/23 01:36:11;;;;;;;13.10;2.65;;;;;;;;;;6219240;23;20549;-62
2022/02/23 01:38:37;;;;;;;11.75;2.55;;;;;;;;;;6219015;23;20145;-62
2022/02/23 01:41:03;;;;;;;19.13;3.00;;;;;;;;;;6218703;23;20234;-62
2022/02/23 01:43:30;;;;;;;18.65;3.17;;;;;;;;;;6219359;23;20145;-62
2022/02/23 01:45:56;;;;;;;16.02;2.92;;;;;;;;;;6218832;23;20545;-62
2022/02/23 01:48:23;;;;;;;20.50;4.03;;;;;;;;;;6218671;23;20141;-63
2022/02/23 01:50:49;;;;;;;20.05;3.30;;;;;;;;;;6216954;23;20168;-62
2022/02/23 01:53:17;;;;;;;17.58;2.95;;;;;;;;;;6218405;23;20145;-62
2022/02/23 01:55:42;;;;;;;17.77;3.00;;;;;;;;;;6217647;23;20149;-61
2022/02/23 01:58:09;;;;;;;21.40;3.60;;;;;;;;;;6216773;23;20576;-61
2022/02/23 02:00:35;;;;;;;17.45;3.38;;;;;;;;;;6216282;23;20172;-62
2022/02/23 02:03:01;;;;;;;20.67;3.70;;;;;;;;;;6216614;23;20152;-61
2022/02/23 02:05:27;;;;;;;14.90;3.60;;;;;;;;;;6215978;23;20152;-61
2022/02/23 02:07:53;;;;;;;13.20;2.83;;;;;;;;;;6216789;23;20149;-61
2022/02/23 02:10:18;;;;;;;18.20;2.88;;;;;;;;;;6216275;23;20226;-61
2022/02/23 02:12:44;;;;;;;22.08;3.40;;;;;;;;;;6217776;23;20620;-60
2022/02/23 02:15:11;;;;;;;14.80;2.92;;;;;;;;;;6218096;23;20176;-61
2022/02/23 02:17:37;;;;;;;11.32;2.58;;;;;;;;;;6216383;23;20199;-63
2022/02/23 02:20:04;;;;;;;20.48;3.17;;;;;;;;;;6217908;23;20173;-62
2022/02/23 02:22:30;;;;;;;17.13;3.05;;;;;;;;;;6217678;23;20141;-62
2022/02/23 02:24:56;;;;;;;16.15;3.35;;;;;;;;;;6218021;23;20141;-62
2022/02/23 02:27:22;;;;;;;11.25;3.13;;;;;;;;;;6218478;23;20172;-62
2022/02/23 02:29:48;;;;;;;10.55;2.33;;;;;;;;;;6218585;23;20145;-63
2022/02/23 02:32:17;;;;;;;14.80;3.10;;;;;;;;;;6218426;23;20161;-63
2022/02/23 02:34:43;;;;;;;9.45;2.20;;;;;;;;;;6218515;23;20152;-63
2022/02/23 02:37:09;;;;;;;20.35;3.50;;;;;;;;;;6218657;23;20219;-63
2022/02/23 02:39:35;;;;;;;12.40;2.40;;;;;;;;;;6218593;23;20482;-64
2022/02/23 02:42:01;;;;;;;15.25;2.60;;;;;;;;;;6219694;23;20144;-64
2022/02/23 02:44:27;;;;;;;12.13;2.83;;;;;;;;;;6219710;23;20545;-63
2022/02/23 02:46:53;;;;;;;14.90;3.42;;;;;;;;;;6219673;23;20156;-63
2022/02/23 02:49:19;;;;;;;16.13;3.38;;;;;;;;;;6219283;23;20140;-63
2022/02/23 02:51:45;;;;;;;10.48;2.55;;;;;;;;;;6219438;23;20148;-64
2022/02/23 02:54:11;;;;;;;15.98;2.95;;;;;;;;;;6218885;23;20172;-62
2022/02/23 02:56:38;;;;;;;10.18;2.47;;;;;;;;;;6217994;23;20145;-62
2022/02/23 02:59:05;;;;;;;13.23;3.58;;;;;;;;;;6218615;23;20156;-62
2022/02/23 03:01:32;;;;;;;14.93;2.45;;;;;;;;;;6218752;23;20145;-62
2022/02/23 03:03:58;;;;;;;12.02;2.92;;;;;;;;;;6218922;23;20225;-62
2022/02/23 03:06:24;;;;;;;12.32;2.25;;;;;;;;;;6218406;23;20585;-62
2022/02/23 03:08:51;;;;;;;13.30;2.17;;;;;;;;;;6218182;23;20148;-63
2022/02/23 03:11:16;;;;;;;13.88;2.35;;;;;;;;;;6218116;23;20145;-62
2022/02/23 03:13:43;;;;;;;12.63;2.42;;;;;;;;;;6218249;23;20235;-63
2022/02/23 03:16:10;;;;;;;12.57;2.83;;;;;;;;;;6218016;23;20152;-62
2022/02/23 03:18:36;;;;;;;12.85;2.47;;;;;;;;;;6217888;23;20295;-63
2022/02/23 03:21:02;;;;;;;11.50;2.05;;;;;;;;;;6217999;23;20464;-62
2022/02/23 03:23:29;;;;;;;11.93;2.30;;;;;;;;;;6216970;23;20137;-63
2022/02/23 03:25:55;;;;;;;16.70;2.45;;;;;;;;;;6217907;23;20145;-63
2022/02/23 03:28:21;;;;;;;13.60;2.60;;;;;;;;;;6219734;23;20541;-63
2022/02/23 03:30:47;;;;;;;20.40;3.03;;;;;;;;;;6218847;23;20571;-62
2022/02/23 03:33:13;;;;;;;10.55;2.40;;;;;;;;;;6219287;23;20212;-62
2022/02/23 03:35:40;;;;;;;15.38;2.92;;;;;;;;;;6219452;23;20524;-62
2022/02/23 03:38:07;;;;;;;11.70;2.45;;;;;;;;;;6219193;23;20145;-62
2022/02/23 03:40:34;;;;;;;12.75;3.33;;;;;;;;;;6218853;23;20215;-62
2022/02/23 03:43:00;;;;;;;11.10;2.65;;;;;;;;;;6218612;23;20215;-62
2022/02/23 03:45:26;;;;;;;14.90;2.72;;;;;;;;;;6218366;23;20147;-62
2022/02/23 03:47:52;;;;;;;14.73;2.33;;;;;;;;;;6217973;23;20137;-62
2022/02/23 03:50:18;;;;;;;13.23;2.50;;;;;;;;;;6218261;23;20145;-62
2022/02/23 03:52:44;;;;;;;15.80;3.55;;;;;;;;;;6218168;23;20149;-62
2022/02/23 03:55:11;;;;;;;13.85;2.65;;;;;;;;;;6218235;23;20145;-61
2022/02/23 03:57:37;;;;;;;12.02;2.63;;;;;;;;;;6218656;23;20143;-62
2022/02/23 04:00:07;;;;;;;18.15;3.33;;;;;;;;;;6219004;23;20222;-62
2022/02/23 04:02:33;;;;;;;14.80;2.40;;;;;;;;;;6219247;23;20164;-62
2022/02/23 04:04:59;;;;;;;14.75;2.65;;;;;;;;;;6220476;23;20665;-62
2022/02/23 04:07:25;;;;;;;13.43;2.58;;;;;;;;;;6220991;23;20141;-62
2022/02/23 04:09:51;;;;;;;15.77;2.78;;;;;;;;;;6221402;23;20451;-62
2022/02/23 04:12:17;;;;;;;13.45;2.35;;;;;;;;;;6221001;23;20608;-62
2022/02/23 04:14:43;;;;;;;11.77;2.50;;;;;;;;;;6220827;23;20183;-61
2022/02/23 04:17:09;;;;;;;20.38;3.22;;;;;;;;;;6220238;23;20145;-61
2022/02/23 04:19:35;;;;;;;12.55;2.60;;;;;;;;;;6220449;23;20294;-62
2022/02/23 04:22:02;;;;;;;12.85;2.30;;;;;;;;;;6221324;23;20149;-62
2022/02/23 04:24:28;;;;;;;12.82;2.42;;;;;;;;;;6220416;23;20168;-62
2022/02/23 04:26:54;;;;;;;13.45;3.35;;;;;;;;;;6220451;23;20141;-62
2022/02/23 04:29:21;;;;;;;11.73;2.22;;;;;;;;;;6220346;23;20145;-62
2022/02/23 04:31:47;;;;;;;7.68;1.90;;;;;;;;;;6220600;23;20167;-62
2022/02/23 04:34:13;;;;;;;9.88;2.42;;;;;;;;;;6219720;23;20141;-61
2022/02/23 04:36:39;;;;;;;15.55;2.67;;;;;;;;;;6220101;23;20438;-62
2022/02/23 04:39:05;;;;;;;18.38;2.72;;;;;;;;;;6219239;23;20204;-61
2022/02/23 04:41:31;;;;;;;20.05;3.35;;;;;;;;;;6219158;23;20172;-61
2022/02/23 04:43:58;;;;;;;11.07;2.67;;;;;;;;;;6218497;23;20180;-61
2022/02/23 04:46:24;;;;;;;14.20;2.33;;;;;;;;;;6218992;23;20137;-61
2022/02/23 04:48:50;;;;;;;16.73;2.53;;;;;;;;;;6218452;23;20616;-61
2022/02/23 04:51:17;;;;;;;19.02;3.38;;;;;;;;;;6218323;23;20148;-61
2022/02/23 04:53:43;;;;;;;10.27;2.63;;;;;;;;;;6218833;23;20144;-61
2022/02/23 04:56:10;;;;;;;15.00;3.08;;;;;;;;;;6218544;23;20168;-61
2022/02/23 04:58:36;;;;;;;14.18;2.97;;;;;;;;;;6218728;23;20479;-61
2022/02/23 05:01:02;;;;;;;16.63;2.85;;;;;;;;;;6219239;23;20244;-61
2022/02/23 05:03:28;;;;;;;13.32;2.97;;;;;;;;;;6218588;23;20219;-60
2022/02/23 05:05:54;;;;;;;10.77;2.50;;;;;;;;;;6217972;23;20148;-61
2022/02/23 05:08:20;;;;;;;13.63;3.58;;;;;;;;;;6217917;23;20141;-60
2022/02/23 05:10:47;;;;;;;19.42;2.90;;;;;;;;;;6217799;23;20149;-60
2022/02/23 05:13:13;;;;;;;16.23;3.30;;;;;;;;;;6218544;23;20216;-61
2022/02/23 05:15:39;;;;;;;18.58;3.38;;;;;;;;;;6218000;23;20140;-61
2022/02/23 05:18:06;;;;;;;17.67;3.97;;;;;;;;;;6218769;23;20145;-60
2022/02/23 05:20:33;;;;;;;17.83;3.35;;;;;;;;;;6217991;23;20173;-60
2022/02/23 05:22:59;;;;;;;13.43;3.03;;;;;;;;;;6218629;23;20223;-61
2022/02/23 05:25:25;;;;;;;15.48;2.72;;;;;;;;;;6217702;23;20202;-60
2022/02/23 05:27:51;;;;;;;13.48;2.58;;;;;;;;;;6217440;23;20141;-61
2022/02/23 05:30:17;;;;;;;12.02;3.22;;;;;;;;;;6217844;23;20422;-60
2022/02/23 05:32:43;;;;;;;9.30;2.45;;;;;;;;;;6223226;23;20168;-61
2022/02/23 05:35:10;;;;;;;16.95;3.10;;;;;;;;;;6229002;23;20148;-61
2022/02/23 05:37:36;;;;;;;20.08;3.17;;;;;;;;;;6228783;23;20145;-60
2022/02/23 05:40:03;;;;;;;19.40;3.58;;;;;;;;;;6226979;23;20173;-61
2022/02/23 05:42:29;;;;;;;18.98;2.88;;;;;;;;;;6226426;23;20171;-61
2022/02/23 05:44:55;;;;;;;16.55;3.10;;;;;;;;;;6216636;23;20169;-61
2022/02/23 05:47:21;;;;;;;19.05;3.42;;;;;;;;;;6218572;23;20150;-61
2022/02/23 05:49:47;;;;;;;21.02;3.72;;;;;;;;;;6219547;23;20149;-61
2022/02/23 05:52:14;;;;;;;15.90;3.50;;;;;;;;;;6219661;23;20156;-61
2022/02/23 05:54:40;;;;;;;18.77;3.33;;;;;;;;;;6220117;23;20149;-61
2022/02/23 05:57:06;;;;;;;25.67;3.88;;;;;;;;;;6220446;23;20302;-61
2022/02/23 05:59:32;;;;;;;15.75;2.92;;;;;;;;;;6219499;23;20526;-61
2022/02/23 06:05:01;;;;;;;21.80;3.33;;;;;;;;;;6218995;23;20611;-61
2022/02/23 06:07:29;;;;;;;12.90;2.63;;;;;;;;;;6219528;23;20138;-61
2022/02/23 06:09:55;;;;;;;18.30;2.50;;;;;;;;;;6218975;23;20149;-60
2022/02/23 06:12:21;;;;;;;18.30;3.60;;;;;;;;;;6219357;23;20180;-60
2022/02/23 06:14:47;;;;;;;19.92;3.47;;;;;;;;;;6219697;23;20145;-60
2022/02/23 06:17:13;;;;;;;12.18;2.83;;;;;;;;;;6219639;23;20141;-60
2022/02/23 06:19:39;;;;;;;13.57;2.78;;;;;;;;;;6220022;23;20161;-61
2022/02/23 06:22:05;;;;;;;19.50;3.15;;;;;;;;;;6220517;23;20140;-61
2022/02/23 06:24:30;;;;;;;17.15;2.75;;;;;;;;;;6220120;23;20579;-60
2022/02/23 06:26:57;;;;;;;14.45;2.65;;;;;;;;;;6218785;23;20137;-62
2022/02/23 06:29:23;;;;;;;14.88;2.70;;;;;;;;;;6218850;23;20187;-62
2022/02/23 06:32:02;;;;;;;11.93;2.40;;;;;;;;;;6218920;23;20161;-62
2022/02/23 06:34:28;;;;;;;16.23;2.80;;;;;;;;;;6218661;23;20137;-61
2022/02/23 06:36:54;;;;;;;17.00;2.95;;;;;;;;;;6217941;23;20145;-60
2022/02/23 06:39:20;;;;;;;13.18;3.10;;;;;;;;;;6218360;23;20291;-62
2022/02/23 06:41:47;;;;;;;18.40;2.58;;;;;;;;;;6218818;23;20141;-62
2022/02/23 06:44:13;;;;;;;14.30;2.65;;;;;;;;;;6218705;23;20141;-60
2022/02/23 06:46:40;;;;;;;14.38;2.20;;;;;;;;;;6218918;23;20152;-62
2022/02/23 06:49:06;;;;;;;10.23;2.30;;;;;;;;;;6218739;23;20301;-61
2022/02/23 06:51:32;;;;;;;18.23;2.92;;;;;;;;;;6219456;23;20141;-63
2022/02/23 06:53:58;;;;;;;15.10;2.58;;;;;;;;;;6219541;23;20438;-63
2022/02/23 06:56:24;;;;;;;14.55;2.83;;;;;;;;;;6220959;23;20137;-63
2022/02/23 06:58:51;;;;;;;11.02;2.67;;;;;;;;;;6220612;23;20148;-63
2022/02/23 07:01:18;;;;;;;13.98;2.50;;;;;;;;;;6220910;23;20180;-63
2022/02/23 07:03:45;;;;;;;10.80;2.30;;;;;;;;;;6221210;23;20145;-63
2022/02/23 07:06:11;;;;;;;12.57;2.65;;;;;;;;;;6221336;23;20224;-64
2022/02/23 07:08:38;;;;;;;12.30;2.63;;;;;;;;;;6221162;23;20573;-63
2022/02/23 07:11:04;;;;;;;10.43;2.47;;;;;;;;;;6221619;23;20159;-63
2022/02/23 07:13:30;;;;;;;17.30;2.70;;;;;;;;;;6221360;23;20144;-63
2022/02/23 07:15:56;;;;;;;17.67;2.72;;;;;;;;;;6221132;23;20620;-64
2022/02/23 07:18:22;;;;;;;11.95;2.50;;;;;;;;;;6218830;23;20172;-65
2022/02/23 07:20:47;;;;;;;10.00;1.92;;;;;;;;;;6216397;23;20197;-66
2022/02/23 07:23:13;;;;;;;10.50;2.10;;;;;;;;;;6217555;23;20191;-66
2022/02/23 07:25:39;;;;;;;10.60;2.03;;;;;;;;;;6217127;23;20212;-66
2022/02/23 07:28:05;;;;;;;15.68;2.90;;;;;;;;;;6217541;23;20493;-66
2022/02/23 07:30:31;;;;;;;13.50;2.20;;;;;;;;;;6217257;23;20149;-66
2022/02/23 07:32:57;;;;;;;17.27;2.22;;;;;;;;;;6217072;23;20357;-65
2022/02/23 07:35:23;;;;;;;12.38;2.50;;;;;;;;;;6217131;23;20168;-64
2022/02/23 07:37:52;;;;;;;11.52;2.67;;;;;;;;;;6217100;23;20561;-64
2022/02/23 07:40:20;;;;;;;15.30;2.67;;;;;;;;;;6216936;23;20219;-64
2022/02/23 07:42:46;;;;;;;11.43;2.65;;;;;;;;;;6217245;23;20171;-64
2022/02/23 07:45:12;;;;;;;16.42;2.42;;;;;;;;;;6216887;23;20141;-64
2022/02/23 07:47:38;;;;;;;12.98;2.45;;;;;;;;;;6217003;23;20206;-64
2022/02/23 07:50:08;;;;;;;12.55;2.83;;;;;;;;;;6217258;23;20535;-64
2022/02/23 07:52:34;;;;;;;15.13;2.88;;;;;;;;;;6217257;23;20149;-64
2022/02/23 07:55:00;;;;;;;12.48;2.20;;;;;;;;;;6216934;23;20156;-64
2022/02/23 07:57:26;;;;;;;9.73;2.38;;;;;;;;;;6216820;23;20528;-64
2022/02/23 07:59:52;;;;;;;14.60;2.85;;;;;;;;;;6216629;23;20169;-64
2022/02/23 08:02:17;;;;;;;11.40;2.20;;;;;;;;;;6216997;23;20152;-64
2022/02/23 08:04:44;;;;;;;14.30;2.50;;;;;;;;;;6217198;23;20137;-64
2022/02/23 08:07:10;;;;;;;11.57;2.28;;;;;;;;;;6215855;23;20145;-64
2022/02/23 08:09:36;;;;;;;18.08;3.10;;;;;;;;;;6217380;23;20476;-64
2022/02/23 08:12:03;;;;;;;14.70;2.78;;;;;;;;;;6216711;23;20224;-64
2022/02/23 08:14:29;;;;;;;15.57;2.63;;;;;;;;;;6218583;23;20224;-65
2022/02/23 08:19:40;;;;;;;12.00;2.55;;;;;;;;;;6216287;23;20196;-65
2022/02/23 08:22:15;;;;;;;17.95;2.60;;;;;;;;;;6216492;23;20591;-64
2022/02/23 08:24:44;;;;;;;15.73;2.60;;;;;;;;;;6216768;23;20231;-65
2022/02/23 08:27:11;;;;;;;13.95;2.42;;;;;;;;;;6216492;23;20141;-65
2022/02/23 08:29:37;;;;;;;16.67;2.55;;;;;;;;;;6216471;23;20148;-65
2022/02/23 08:32:04;;;;;;;10.00;2.20;;;;;;;;;;6216777;23;20169;-64
2022/02/23 08:34:30;;;;;;;15.95;2.78;;;;;;;;;;6216744;23;20155;-64
2022/02/23 08:36:56;;;;;;;14.10;2.60;;;;;;;;;;6216810;23;20164;-65
2022/02/23 08:39:22;;;;;;;12.13;2.42;;;;;;;;;;6216687;23;20165;-65
2022/02/23 08:41:48;;;;;;;13.10;2.97;;;;;;;;;;6216855;23;20148;-64
2022/02/23 08:44:15;;;;;;;13.32;2.67;;;;;;;;;;6216521;23;20171;-65
2022/02/23 08:46:42;;;;;;;8.77;2.25;;;;;;;;;;6215096;23;20144;-65
2022/02/23 08:49:09;;;;;;;14.77;2.80;;;;;;;;;;6217498;23;20145;-64
2022/02/23 08:51:35;;;;;;;11.95;2.80;;;;;;;;;;6217631;23;20137;-64
2022/02/23 08:54:01;;;;;;;15.23;2.67;;;;;;;;;;6217965;23;20180;-66
2022/02/23 08:56:27;;;;;;;15.73;3.03;;;;;;;;;;6217455;23;20473;-64
2022/02/23 08:58:53;;;;;;;17.95;2.88;;;;;;;;;;6216083;23;20160;-64
2022/02/23 09:01:19;;;;;;;17.85;2.90;;;;;;;;;;6217046;23;20168;-65
2022/02/23 09:03:45;;;;;;;13.13;2.45;;;;;;;;;;6217695;23;20148;-64
2022/02/23 09:06:12;;;;;;;14.95;2.80;;;;;;;;;;6216782;23;20147;-63
2022/02/23 09:08:37;;;;;;;15.10;2.70;;;;;;;;;;6217650;23;20159;-64
2022/02/23 09:11:04;;;;;;;16.45;3.00;;;;;;;;;;6217526;23;20180;-63
2022/02/23 09:13:30;;;;;;;15.35;2.35;;;;;;;;;;6217032;23;20152;-64
2022/02/23 09:15:56;;;;;;;12.13;2.53;;;;;;;;;;6216954;23;20141;-65
2022/02/23 09:18:21;;;;;;;16.98;3.03;;;;;;;;;;6217837;23;20534;-65
2022/02/23 09:20:47;;;;;;;15.23;2.90;;;;;;;;;;6217009;23;20175;-64
2022/02/23 09:23:15;;;;;;;18.35;3.00;;;;;;;;;;6217148;23;20137;-65
2022/02/23 09:25:41;;;;;;;21.55;3.30;;;;;;;;;;6217127;23;20145;-65
2022/02/23 09:28:07;;;;;;;12.18;2.35;;;;;;;;;;6216870;23;20220;-65
2022/02/23 09:30:33;;;;;;;10.40;3.08;;;;;;;;;;6216494;23;20149;-65
2022/02/23 09:32:59;;;;;;;17.58;2.90;;;;;;;;;;6217107;23;20592;-65
2022/02/23 09:35:25;;;;;;;11.48;2.15;;;;;;;;;;6216769;23;20226;-66
2022/02/23 09:37:51;;;;;;;17.08;3.45;;;;;;;;;;6218057;23;20224;-65
2022/02/23 09:40:17;;;;;;;14.43;2.85;;;;;;;;;;6216961;23;20204;-65
2022/02/23 09:42:44;;;;;;;16.80;3.00;;;;;;;;;;6217904;23;20137;-64
2022/02/23 09:45:10;;;;;;;14.00;2.63;;;;;;;;;;6217721;23;20211;-65
2022/02/23 09:47:36;;;;;;;17.48;3.22;;;;;;;;;;6217405;23;20437;-67
2022/02/23 09:50:03;;;;;;;16.30;3.30;;;;;;;;;;6216443;23;20256;-66
2022/02/23 09:52:29;;;;;;;13.23;2.60;;;;;;;;;;6216968;23;20557;-65
2022/02/23 09:54:59;;;;;;;14.60;2.35;;;;;;;;;;6217224;23;20149;-65
2022/02/23 09:57:25;;;;;;;14.05;3.28;;;;;;;;;;6217365;23;20573;-65
2022/02/23 09:59:52;;;;;;;12.20;2.20;;;;;;;;;;6216176;23;20169;-65
2022/02/23 10:02:20;;;;;;;10.10;2.92;;;;;;;;;;6216851;23;20169;-65
2022/02/23 10:04:47;;;;;;;14.90;2.80;;;;;;;;;;6217346;23;20173;-65
2022/02/23 10:07:13;;;;;;;6.90;2.25;;;;;;;;;;6217447;23;20149;-65
2022/02/23 10:09:41;;;;;;;15.75;3.38;;;;;;;;;;6216669;23;20219;-65
2022/02/23 10:12:07;;;;;;;11.80;2.67;;;;;;;;;;6216778;23;20145;-65
2022/02/23 10:14:33;;;;;;;10.45;2.05;;;;;;;;;;6217073;23;20164;-65
2022/02/23 10:16:59;;;;;;;15.52;2.60;;;;;;;;;;6216997;23;20176;-65
2022/02/23 10:19:25;;;;;;;20.17;3.47;;;;;;;;;;6216591;23;20181;-65
2022/02/23 10:21:55;;;;;;;14.98;2.50;;;;;;;;;;6216006;23;20141;-64
2022/02/23 10:24:23;;;;;;;12.98;2.92;;;;;;;;;;6216285;23;20155;-64
2022/02/23 10:26:56;;;;;;;17.70;3.50;;;;;;;;;;6215811;23;20141;-65
2022/02/23 10:29:25;;;;;;;12.57;2.75;;;;;;;;;;6215731;23;20296;-64
2022/02/23 10:31:51;;;;;;;14.48;2.83;;;;;;;;;;6216171;23;20573;-63
2022/02/23 10:34:20;;;;;;;17.75;2.42;;;;;;;;;;6217806;23;20171;-64
2022/02/23 10:36:57;;;;;;;13.13;3.10;;;;;;;;;;6217644;23;20137;-63
2022/02/23 10:39:23;;;;;;;12.75;2.42;;;;;;;;;;6217371;23;20218;-64
2022/02/23 10:42:02;;;;;;;11.75;2.53;;;;;;;;;;6217313;23;20584;-64
2022/02/23 10:44:29;;;;;;;12.60;2.60;;;;;;;;;;6217316;23;20209;-64
2022/02/23 10:46:55;;;;;;;15.15;2.75;;;;;;;;;;6217593;23;20141;-63
2022/02/23 10:49:21;;;;;;;16.70;2.72;;;;;;;;;;6217192;23;20148;-64
2022/02/23 10:51:48;;;;;;;14.43;2.90;;;;;;;;;;6217233;23;20168;-64
2022/02/23 10:54:15;;;;;;;17.05;3.20;;;;;;;;;;6217301;23;20152;-63
2022/02/23 10:56:44;;;;;;;14.30;3.42;;;;;;;;;;6216795;23;20713;-63
2022/02/23 10:59:15;;;;;;;11.55;2.60;;;;;;;;;;6217445;23;20216;-63
2022/02/23 11:01:41;;;;;;;13.95;2.90;;;;;;;;;;6217508;23;20450;-63
2022/02/23 11:04:08;;;;;;;9.68;2.25;;;;;;;;;;6217573;23;20144;-63
2022/02/23 11:06:34;;;;;;;19.75;2.85;;;;;;;;;;6217079;23;20149;-63
2022/02/23 11:09:01;;;;;;;14.27;2.92;;;;;;;;;;6217492;23;20145;-65
2022/02/23 11:11:27;;;;;;;9.25;2.67;;;;;;;;;;6217076;23;20153;-63
2022/02/23 11:13:56;;;;;;;14.00;2.70;;;;;;;;;;6217411;23;20145;-63
2022/02/23 11:16:23;;;;;;;15.23;2.50;;;;;;;;;;6217114;23;20145;-64
2022/02/23 11:18:49;;;;;;;12.68;2.47;;;;;;;;;;6217419;23;20576;-63
2022/02/23 11:21:16;;;;;;;13.60;2.42;;;;;;;;;;6217211;23;20161;-63
2022/02/23 11:23:44;;;;;;;13.00;2.85;;;;;;;;;;6217082;23;20493;-63
2022/02/23 11:26:12;;;;;;;11.98;2.75;;;;;;;;;;6217081;23;20219;-63
2022/02/23 11:28:49;;;;;;;10.07;2.33;;;;;;;;;;6217523;23;20145;-63
2022/02/23 11:31:16;;;;;;;14.00;3.10;;;;;;;;;;6217354;23;20160;-63
2022/02/23 11:33:48;;;;;;;13.13;2.55;;;;;;;;;;6217378;23;20239;-64
2022/02/23 11:36:28;;;;;;;7.88;2.33;;;;;;;;;;6217011;23;20145;-63
2022/02/23 11:38:54;;;;;;;10.30;2.55;;;;;;;;;;6217452;23;20153;-63
2022/02/23 11:41:33;;;;;;;14.68;2.67;;;;;;;;;;6218175;23;20165;-65
2022/02/23 11:44:02;;;;;;;12.30;2.33;;;;;;;;;;6218288;23;20231;-65
2022/02/23 11:46:28;;;;;;;9.77;2.30;;;;;;;;;;6218831;23;20443;-65
2022/02/23 11:48:57;;;;;;;8.20;2.47;;;;;;;;;;6219299;23;20440;-66
2022/02/23 11:51:24;;;;;;;12.32;2.80;;;;;;;;;;6219762;23;20144;-65
2022/02/23 11:53:50;;;;;;;12.00;2.53;;;;;;;;;;6219906;23;20398;-65
2022/02/23 11:56:17;;;;;;;9.20;2.60;;;;;;;;;;6219886;23;20461;-65
2022/02/23 11:58:44;;;;;;;11.07;2.00;;;;;;;;;;6220100;23;20212;-65
2022/02/23 12:01:10;;;;;;;9.45;2.60;;;;;;;;;;6217400;23;20383;-65
2022/02/23 12:03:36;;;;;;;11.32;2.47;;;;;;;;;;6216989;23;20141;-64
2022/02/23 12:06:06;;;;;;;9.57;2.50;;;;;;;;;;6217336;23;20165;-65
2022/02/23 12:08:32;;;;;;;13.60;2.53;;;;;;;;;;6216758;23;20569;-66
2022/02/23 12:11:10;;;;;;;14.27;2.78;;;;;;;;;;6217101;23;20168;-66
2022/02/23 12:13:39;;;;;;;10.20;2.10;;;;;;;;;;6216602;23;20580;-66
2022/02/23 12:16:23;;;;;;;10.25;2.47;;;;;;;;;;6216609;23;20141;-66
2022/02/23 12:18:50;;;;;;;10.80;2.80;;;;;;;;;;6217055;23;20220;-66
2022/02/23 12:21:16;;;;;;;11.98;2.58;;;;;;;;;;6216702;23;20230;-67
2022/02/23 12:23:44;;;;;;;10.43;1.90;;;;;;;;;;6216670;23;20148;-66
2022/02/23 12:26:11;;;;;;;10.35;2.67;;;;;;;;;;6216851;23;20195;-66
2022/02/23 12:28:38;;;;;;;9.45;2.13;;;;;;;;;;6216883;23;20145;-66
2022/02/23 12:31:06;;;;;;;12.90;2.35;;;;;;;;;;6216484;23;20167;-66
2022/02/23 12:33:33;;;;;;;9.00;2.17;;;;;;;;;;6216721;23;20220;-66
2022/02/23 12:36:07;;;;;;;13.88;2.35;;;;;;;;;;6216496;23;20187;-67
2022/02/23 12:38:34;;;;;;;11.50;2.85;;;;;;;;;;6216339;23;20561;-67
2022/02/23 12:41:03;;;;;;;9.68;1.85;;;;;;;;;;6216372;23;20248;-66
2022/02/23 12:43:29;;;;;;;14.18;2.63;;;;;;;;;;6215205;23;20137;-66
2022/02/23 12:45:59;;;;;;;9.07;2.10;;;;;;;;;;6216306;23;20449;-66
2022/02/23 12:48:25;;;;;;;9.13;2.72;;;;;;;;;;6216605;23;20148;-66
2022/02/23 12:50:57;;;;;;;10.13;2.03;;;;;;;;;;6216368;23;20144;-65
2022/02/23 12:53:30;;;;;;;11.82;2.97;;;;;;;;;;6216173;23;20152;-65
2022/02/23 12:55:57;;;;;;;9.68;2.22;;;;;;;;;;6216330;23;20580;-66
2022/02/23 12:58:31;;;;;;;8.48;2.40;;;;;;;;;;6216358;23;20247;-66
2022/02/23 13:00:57;;;;;;;13.48;2.40;;;;;;;;;;6216753;23;20290;-66
2022/02/23 13:03:23;;;;;;;8.35;2.10;;;;;;;;;;6217752;23;20155;-66
2022/02/23 13:05:49;;;;;;;13.35;2.05;;;;;;;;;;6216083;23;20227;-66
2022/02/23 13:08:21;;;;;;;9.10;2.42;;;;;;;;;;6215899;23;20187;-66
2022/02/23 13:11:00;;;;;;;8.05;1.98;;;;;;;;;;6216512;23;20153;-65
2022/02/23 13:13:39;;;;;;;9.38;2.33;;;;;;;;;;6214861;23;20149;-65
2022/02/23 13:16:05;;;;;;;12.77;2.20;;;;;;;;;;6216284;23;20149;-65
2022/02/23 13:18:32;;;;;;;9.60;2.00;;;;;;;;;;6216013;23;20591;-66
2022/02/23 13:21:07;;;;;;;12.50;2.30;;;;;;;;;;6216258;23;20207;-66
2022/02/23 13:23:52;;;;;;;7.75;1.73;;;;;;;;;;6216182;23;20227;-66
2022/02/23 13:26:18;;;;;;;11.65;2.90;;;;;;;;;;6216094;23;20140;-65
2022/02/23 13:29:11;;;;;;;11.50;1.98;;;;;;;;;;6215844;23;20216;-66
2022/02/23 13:31:36;;;;;;;7.47;2.00;;;;;;;;;;6216078;23;20164;-66
2022/02/23 13:34:20;;;;;;;6.55;2.00;;;;;;;;;;6215959;23;20147;-66
2022/02/23 13:36:46;;;;;;;7.85;2.15;;;;;;;;;;6216052;23;20231;-66
2022/02/23 13:39:15;;;;;;;11.10;1.92;;;;;;;;;;6216242;23;20155;-66
2022/02/23 13:42:07;;;;;;;8.40;1.90;;;;;;;;;;6215708;23;20141;-66
2022/02/23 13:44:35;;;;;;;10.50;2.45;;;;;;;;;;6215746;23;20227;-66
2022/02/23 13:47:07;;;;;;;8.65;1.95;;;;;;;;;;6216335;23;20167;-66
2022/02/23 13:49:34;;;;;;;7.53;2.05;;;;;;;;;;6215899;23;20169;-66
2022/02/23 13:52:02;;;;;;;10.48;2.65;;;;;;;;;;6215911;23;20145;-67
2022/02/23 13:54:28;;;;;;;10.32;2.50;;;;;;;;;;6215916;23;20169;-66
2022/02/23 13:56:55;;;;;;;7.97;1.80;;;;;;;;;;6216626;23;20156;-66
2022/02/23 13:59:22;;;;;;;5.60;1.88;;;;;;;;;;6215380;23;20145;-66
2022/02/23 14:02:01;;;;;;;6.75;1.75;;;;;;;;;;6216023;23;20220;-66
2022/02/23 14:04:38;;;;;;;7.70;2.22;;;;;;;;;;6215693;23;20141;-65
2022/02/23 14:07:04;;;;;;;6.78;2.08;;;;;;;;;;6216419;23;20144;-63
2022/02/23 14:09:30;;;;;;;8.60;1.73;;;;;;;;;;6217837;23;20141;-63
2022/02/23 14:11:59;;;;;;;9.98;1.92;;;;;;;;;;6218012;23;20621;-63
2022/02/23 14:14:25;;;;;;;8.13;1.30;;;;;;;;;;6218261;23;20145;-64
2022/02/23 14:16:52;;;;;;;4.57;1.70;;;;;;;;;;6218170;23;20212;-64
2022/02/23 14:19:22;;;;;;;7.22;1.63;;;;;;;;;;6217966;23;20152;-64
2022/02/23 14:21:53;;;;;;;7.82;1.58;;;;;;;;;;6218147;23;20208;-65
2022/02/23 14:24:21;;;;;;;5.60;1.67;;;;;;;;;;6217631;23;20216;-64
2022/02/23 14:26:58;;;;;;;5.93;1.58;;;;;;;;;;6218126;23;20216;-64
2022/02/23 14:29:30;;;;;;;6.55;1.60;;;;;;;;;;6217916;23;20141;-64
2022/02/23 14:31:57;;;;;;;8.60;1.92;;;;;;;;;;6217838;23;20157;-64
2022/02/23 14:34:27;;;;;;;4.68;1.50;;;;;;;;;;6218022;23;20206;-64
2022/02/23 14:36:54;;;;;;;10.52;1.70;;;;;;;;;;6218101;23;20133;-64